createdAt,value
2023-02-01T02:21:16.329Z,25.00
2023-02-01T02:24:11.635Z,27.75
2023-02-01T02:27:04.345Z,29.50
2023-02-01T02:29:55.794Z,28.50
2023-02-01T02:32:41.714Z,29.75
2023-02-01T02:35:29.231Z,25.50
2023-02-01T02:38:24.766Z,26.75
2023-02-01T02:41:35.781Z,26.00
2023-02-01T02:44:32.581Z,22.75
2023-02-01T02:47:25.714Z,25.00
2023-02-01T02:50:14.475Z,22.00
2023-02-01T02:53:08.023Z,19.25
2023-02-01T02:55:39.397Z,25.25
2023-02-01T02:58:28.641Z,25.50
2023-02-01T03:01:16.263Z,25.75
2023-02-01T03:04:05.049Z,25.00
2023-02-01T03:06:34.516Z,26.00
2023-02-01T03:09:09.183Z,26.00
2023-02-01T03:11:55.895Z,26.75
2023-02-01T03:14:29.909Z,25.50
2023-02-01T03:17:09.675Z,25.50
2023-02-01T03:19:44.886Z,25.50
2023-02-01T03:22:16.754Z,24.75
2023-02-01T03:24:51.455Z,26.67
2023-02-01T03:28:01.145Z,29.00
2023-02-01T03:30:37.475Z,29.75
2023-02-01T03:33:15.194Z,38.67
2023-02-01T03:35:50.319Z,44.33
2023-02-01T03:38:45.649Z,43.33
2023-02-01T03:41:13.428Z,37.00
2023-02-01T03:43:54.077Z,41.67
2023-02-01T03:46:34.389Z,38.67
2023-02-01T03:49:07.938Z,37.00
2023-02-01T03:51:39.487Z,33.67
2023-02-01T03:54:14.919Z,34.00
2023-02-01T03:56:47.526Z,32.67
2023-02-01T03:59:16.114Z,19.00
2023-02-01T04:01:44.371Z,34.00
2023-02-01T04:04:21.091Z,31.67
2023-02-01T04:06:50.815Z,24.33
2023-02-01T04:09:19.826Z,31.33
2023-02-01T04:11:48.766Z,33.67
2023-02-01T04:14:18.340Z,30.67
2023-02-01T04:16:46.878Z,31.00
2023-02-01T04:19:16.237Z,29.00
2023-02-01T04:21:44.845Z,30.33
2023-02-01T04:24:13.259Z,31.33
2023-02-01T04:26:41.715Z,33.33
2023-02-01T04:29:11.574Z,30.00
2023-02-01T04:31:40.084Z,34.00
2023-02-01T04:34:10.843Z,34.67
2023-02-01T04:36:38.597Z,37.00
2023-02-01T04:39:07.066Z,31.67
2023-02-01T04:41:35.106Z,34.00
2023-02-01T04:44:03.811Z,34.67
2023-02-01T04:46:32.098Z,33.33
2023-02-01T04:49:00.205Z,31.67
2023-02-01T04:51:28.778Z,31.67
2023-02-01T04:53:57.071Z,34.33
2023-02-01T04:56:27.535Z,32.33
2023-02-01T04:58:56.595Z,34.67
2023-02-01T05:01:28.322Z,34.00
2023-02-01T05:03:59.143Z,35.33
2023-02-01T05:06:27.046Z,35.00
2023-02-01T05:08:54.907Z,25.67
2023-02-01T05:11:42.113Z,34.00
2023-02-01T05:14:10.354Z,35.00
2023-02-01T05:16:38.251Z,32.33
2023-02-01T05:19:06.219Z,31.00
2023-02-01T05:21:34.733Z,35.33
2023-02-01T05:24:11.892Z,32.00
2023-02-01T05:26:43.100Z,34.00
2023-02-01T05:29:12.830Z,35.67
2023-02-01T05:31:41.362Z,37.00
2023-02-01T05:34:09.263Z,38.33
2023-02-01T05:36:37.312Z,38.67
2023-02-01T05:39:05.270Z,44.33
2023-02-01T05:41:37.017Z,41.00
2023-02-01T05:44:08.452Z,38.00
2023-02-01T05:46:38.619Z,42.67
2023-02-01T05:49:08.318Z,37.00
2023-02-01T05:51:38.836Z,29.00
2023-02-01T05:54:10.847Z,42.67
2023-02-01T05:56:40.600Z,42.00
2023-02-01T06:04:45.581Z,34.67
2023-02-01T06:07:24.086Z,38.00
2023-02-01T06:15:52.651Z,38.33
2023-02-01T06:23:16.971Z,36.67
2023-02-01T06:25:46.323Z,36.33
2023-02-01T06:28:15.045Z,38.33
2023-02-01T06:30:47.631Z,37.00
2023-02-01T06:33:16.512Z,25.33
2023-02-01T06:35:52.663Z,34.00
2023-02-01T06:38:38.699Z,34.67
2023-02-01T10:36:30.507Z,26.75
2023-02-01T10:39:03.368Z,34.00
2023-02-01T10:41:38.329Z,33.00
2023-02-01T10:44:15.638Z,34.75
2023-02-01T10:46:44.133Z,33.00
2023-02-01T10:49:38.582Z,29.25
2023-02-01T10:52:18.256Z,30.75
2023-02-01T10:54:47.134Z,30.25
2023-02-01T10:57:27.268Z,28.00
2023-02-01T11:00:06.221Z,26.75
2023-02-01T11:02:36.752Z,26.00
2023-02-01T11:05:15.641Z,26.50
2023-02-01T11:07:56.609Z,24.25
2023-02-01T11:10:45.958Z,24.50
2023-02-01T11:13:19.907Z,24.25
2023-02-01T11:15:59.280Z,23.50
2023-02-01T11:18:37.134Z,23.75
2023-02-01T11:21:08.211Z,23.50
2023-02-01T11:23:44.577Z,26.50
2023-02-01T11:26:25.067Z,19.00
2023-02-01T11:29:00.919Z,22.25
2023-02-01T11:31:30.257Z,19.50
2023-02-01T11:34:13.023Z,22.75
2023-02-01T11:36:47.247Z,18.75
2023-02-01T11:39:33.158Z,14.00
2023-02-01T11:42:16.910Z,12.25
2023-02-01T11:44:48.454Z,26.50
2023-02-01T11:47:48.559Z,26.25
2023-02-01T11:50:34.650Z,26.00
2023-02-01T11:53:43.197Z,22.25
2023-02-01T11:56:26.359Z,29.00
2023-02-01T11:59:19.904Z,22.75
2023-02-01T12:02:09.636Z,28.75
2023-02-01T12:05:16.460Z,25.25
2023-02-01T12:08:01.718Z,22.50
2023-02-01T12:10:48.415Z,17.75
2023-02-01T12:13:41.672Z,13.75
2023-02-01T12:16:49.655Z,18.50
2023-02-01T12:19:57.934Z,20.25
2023-02-01T12:23:17.220Z,19.50
2023-02-01T12:26:38.350Z,20.75
2023-02-01T12:29:23.019Z,18.50
2023-02-01T12:32:18.285Z,20.25
2023-02-01T12:35:39.944Z,29.50
2023-02-01T12:38:38.867Z,22.50
2023-02-01T12:41:45.301Z,23.75
2023-02-01T12:44:52.122Z,27.00
2023-02-01T12:47:38.496Z,22.75
2023-02-01T12:50:06.768Z,26.25
2023-02-01T12:52:54.017Z,19.50
2023-02-01T12:55:30.254Z,24.50
2023-02-01T12:58:20.264Z,25.75
2023-02-01T13:01:09.091Z,21.00
2023-02-01T13:03:57.745Z,22.50
2023-02-01T13:06:32.688Z,26.25
2023-02-01T13:09:30.826Z,26.50
2023-02-01T13:12:23.161Z,24.25
2023-02-01T13:15:04.234Z,19.00
2023-02-01T13:17:35.524Z,22.50
2023-02-01T13:20:29.978Z,20.25
2023-02-01T13:23:31.342Z,21.50
2023-02-01T13:26:18.602Z,15.00
2023-02-01T13:29:21.211Z,19.00
2023-02-01T13:32:54.785Z,25.00
2023-02-01T13:35:44.088Z,18.00
2023-02-01T13:38:50.486Z,18.00
2023-02-01T13:41:56.456Z,17.50
2023-02-01T13:44:36.187Z,29.33
2023-02-01T13:47:37.815Z,22.75
2023-02-01T13:50:36.007Z,30.00
2023-02-01T13:53:34.317Z,26.25
2023-02-01T13:56:51.141Z,18.00
2023-02-01T13:59:51.911Z,26.25
2023-02-01T14:02:53.217Z,21.50
2023-02-01T14:05:40.505Z,23.00
2023-02-01T14:08:12.365Z,22.50
2023-02-01T14:13:47.594Z,23.50
2023-02-01T14:16:28.600Z,23.25
2023-02-01T14:19:08.790Z,24.33
2023-02-01T14:22:04.954Z,20.00
2023-02-01T14:24:39.984Z,27.00
2023-02-01T14:27:27.032Z,25.67
2023-02-01T14:30:10.573Z,20.75
2023-02-01T14:33:01.530Z,26.33
2023-02-01T14:38:43.165Z,28.67
2023-02-01T14:41:42.663Z,28.67
2023-02-01T14:44:59.216Z,25.33
2023-02-01T14:47:33.766Z,26.00
2023-02-01T14:50:34.904Z,31.00
2023-02-01T14:53:21.590Z,28.33
2023-02-01T14:56:03.502Z,25.00
2023-02-01T14:59:15.771Z,25.67
2023-02-01T15:01:58.016Z,28.67
2023-02-01T15:04:55.121Z,26.67
2023-02-01T15:07:34.755Z,28.67
2023-02-01T15:10:07.581Z,26.00
2023-02-01T15:12:42.084Z,30.67
2023-02-01T15:18:05.496Z,27.33
2023-02-01T15:20:37.073Z,26.00
2023-02-01T15:23:21.471Z,29.67
2023-02-01T15:25:52.831Z,24.33
2023-02-01T15:28:25.541Z,30.33
2023-02-01T15:31:00.225Z,29.00
2023-02-01T15:33:32.647Z,27.33
2023-02-01T15:36:13.672Z,34.67
2023-02-01T15:38:45.789Z,31.00
2023-02-01T15:41:35.075Z,28.67
2023-02-01T15:44:40.073Z,28.33
2023-02-01T15:47:25.563Z,30.33
2023-02-01T15:50:02.058Z,29.00
2023-02-01T15:52:39.633Z,29.00
2023-02-01T15:55:43.630Z,28.25
2023-02-01T15:58:26.030Z,28.00
2023-02-01T16:01:03.513Z,24.75
2023-02-01T16:03:52.544Z,26.25
2023-02-01T16:06:27.624Z,21.50
2023-02-01T16:09:14.656Z,26.50
2023-02-01T16:11:56.306Z,26.25
2023-02-01T16:14:34.288Z,13.25
2023-02-01T16:17:02.512Z,27.00
2023-02-01T16:19:33.531Z,28.75
2023-02-01T16:22:19.935Z,21.00
2023-02-01T16:24:51.758Z,22.75
2023-02-01T16:27:27.761Z,29.00
2023-02-01T16:29:58.350Z,14.25
2023-02-01T16:32:30.117Z,26.00
2023-02-01T16:35:03.426Z,28.25
2023-02-01T16:37:56.417Z,26.00
2023-02-01T16:40:27.789Z,29.00
2023-02-01T16:43:06.925Z,23.25
2023-02-01T16:45:37.841Z,25.75
2023-02-01T16:48:10.543Z,29.25
2023-02-01T16:50:40.029Z,29.00
2023-02-01T16:53:14.571Z,26.00
2023-02-01T16:55:51.822Z,27.75
2023-02-01T16:58:21.756Z,28.00
2023-02-01T17:00:56.915Z,29.00
2023-02-01T17:03:47.465Z,26.50
2023-02-01T17:06:22.028Z,28.25
2023-02-01T17:08:58.038Z,24.50
2023-02-01T17:11:44.209Z,24.00
2023-02-01T17:14:43.703Z,17.00
2023-02-01T17:17:12.669Z,25.50
2023-02-01T17:19:49.420Z,24.25
2023-02-01T17:22:25.550Z,26.00
2023-02-01T17:24:58.262Z,25.25
2023-02-01T17:27:32.997Z,28.75
2023-02-01T17:36:09.341Z,30.00
2023-02-01T17:38:41.807Z,30.67
2023-02-01T17:41:15.324Z,26.33
2023-02-01T17:43:44.833Z,28.67
2023-02-01T17:46:17.087Z,24.25
2023-02-01T17:48:45.884Z,24.00
2023-02-01T17:51:28.416Z,30.00
2023-02-01T17:53:57.512Z,29.33
2023-02-01T17:56:38.084Z,29.67
2023-02-01T17:59:06.956Z,32.00
2023-02-01T18:01:37.357Z,34.67
2023-02-01T18:04:06.101Z,35.00
2023-02-01T18:06:40.662Z,29.33
2023-02-01T18:09:10.000Z,31.33
2023-02-01T18:11:40.069Z,31.00
2023-02-01T18:14:16.913Z,30.33
2023-02-01T18:16:47.302Z,29.00
2023-02-01T18:19:20.455Z,35.00
2023-02-01T23:40:13.409Z,25.75
2023-02-01T23:43:31.023Z,27.50
2023-02-01T23:48:56.550Z,20.25
2023-02-01T23:54:54.549Z,21.25
2023-02-01T23:57:26.197Z,23.00
